Terminal Aerodrome Forecast
Issued by NWS

Home | Current Version | Previous Version | Text Only | Print | Product List | Glossary On
Versions: 1 2 3 4 5 6 7 8 9 10 11 12 13 14 15 16 17
000
FTUS45 KTFX 231100
TAFHVR
TAF
KHVR 231131Z 2312/2412 22020G30KT P6SM SCT080 BKN140
     FM240200 25020KT P6SM SCT080 BKN140=

USA.gov is the U.S. government's official web portal to all federal, state and local government web resources and services.